KMAO

Details ICAO KMAO
Name MARION CO
Region United States
Timezone America/New_York (UTC-4.0)
Plans Departing 0
Arriving 2
Stats Elevation 92 ft / 28 m (AMSL)
Location 34.181167° -79.334716°
Runways 1
Magnetic Variation 8.570° W
Sunrise 2018-05-22 10:12:26 UTC / 2018-05-22 06:12:26 Local
Sunset 2018-05-23 00:18:28 UTC / 2018-05-22 20:18:28 Local
Advertisement - Login to hide

Runways

ID Width Length Bearing (true) Bearing (mag) Surface Threshold Offset Overrun Length
04 100 ft / 30 m 4,509 ft / 1,374 m 34.50° 43.07° Asphalt 0 ft / 0 m 0 ft / 0 m
22 100 ft / 30 m 4,509 ft / 1,374 m 214.51° 223.08° Asphalt 0 ft / 0 m 0 ft / 0 m

Map

Weather


0- 5 10 15 20 25 30 35+ Temperature / ° C

Clouds and Precipitation
Forecast for 2018-05-22 06:00 UTC. Updated an hour ago

Ground ~20,000 ft ~40,000 ft Winds

METAR

KMAO 220635Z AUTO 20003KT 7SM BKN100 21/20 A3012 RMK AO2

TAF

Not found

Frequencies

Unicom 122.80 MHz CTAF/UNICOM
Approach 135.25 MHz FLORENCE APP/DEP
Warning: Do not use this data for real-world aviation or navigation. No guarantee of current accuracy is given.